sensor_id;sensor_type;location;lat;lon;timestamp;temperature;humidity
11221;DHT22;8517;53.546;10.104;2023-04-15T00:01:05;10.70;99.90
11221;DHT22;8517;53.546;10.104;2023-04-15T00:03:32;10.70;99.90
11221;DHT22;8517;53.546;10.104;2023-04-15T00:06:01;10.70;99.90
11221;DHT22;8517;53.546;10.104;2023-04-15T00:08:29;10.70;99.90
11221;DHT22;8517;53.546;10.104;2023-04-15T00:11:01;10.60;99.90
11221;DHT22;8517;53.546;10.104;2023-04-15T00:13:30;10.60;99.90
11221;DHT22;8517;53.546;10.104;2023-04-15T00:15:57;10.60;99.90
11221;DHT22;8517;53.546;10.104;2023-04-15T00:18:24;10.60;99.90
11221;DHT22;8517;53.546;10.104;2023-04-15T00:20:51;10.60;99.90
11221;DHT22;8517;53.546;10.104;2023-04-15T00:23:20;10.60;99.90
11221;DHT22;8517;53.546;10.104;2023-04-15T00:25:47;10.60;99.90
11221;DHT22;8517;53.546;10.104;2023-04-15T00:28:14;10.60;99.90
11221;DHT22;8517;53.546;10.104;2023-04-15T00:30:41;10.60;99.90
11221;DHT22;8517;53.546;10.104;2023-04-15T00:33:08;10.60;99.90
11221;DHT22;8517;53.546;10.104;2023-04-15T00:35:35;10.60;99.90
11221;DHT22;8517;53.546;10.104;2023-04-15T00:38:02;10.60;99.90
11221;DHT22;8517;53.546;10.104;2023-04-15T00:40:30;10.60;99.90
11221;DHT22;8517;53.546;10.104;2023-04-15T00:42:57;10.60;99.90
11221;DHT22;8517;53.546;10.104;2023-04-15T00:45:25;10.60;99.90
11221;DHT22;8517;53.546;10.104;2023-04-15T00:47:52;10.50;99.90
11221;DHT22;8517;53.546;10.104;2023-04-15T00:50:19;10.50;99.90
11221;DHT22;8517;53.546;10.104;2023-04-15T00:52:45;10.50;99.90
11221;DHT22;8517;53.546;10.104;2023-04-15T00:55:12;10.50;99.90
11221;DHT22;8517;53.546;10.104;2023-04-15T00:57:41;10.50;99.90
11221;DHT22;8517;53.546;10.104;2023-04-15T01:00:09;10.60;99.90
11221;DHT22;8517;53.546;10.104;2023-04-15T01:02:36;10.50;99.90
11221;DHT22;8517;53.546;10.104;2023-04-15T01:05:04;10.50;99.90
11221;DHT22;8517;53.546;10.104;2023-04-15T01:07:32;10.50;99.90
11221;DHT22;8517;53.546;10.104;2023-04-15T01:09:59;10.50;99.90
11221;DHT22;8517;53.546;10.104;2023-04-15T01:12:26;10.50;99.90
11221;DHT22;8517;53.546;10.104;2023-04-15T01:14:54;10.40;99.90
11221;DHT22;8517;53.546;10.104;2023-04-15T01:17:23;10.50;99.90
11221;DHT22;8517;53.546;10.104;2023-04-15T01:19:50;10.50;99.90
11221;DHT22;8517;53.546;10.104;2023-04-15T01:22:17;10.40;99.90
11221;DHT22;8517;53.546;10.104;2023-04-15T01:24:52;10.40;99.90
11221;DHT22;8517;53.546;10.104;2023-04-15T01:27:22;10.40;99.90
11221;DHT22;8517;53.546;10.104;2023-04-15T01:29:48;10.40;99.90
11221;DHT22;8517;53.546;10.104;2023-04-15T01:32:16;10.40;99.90
11221;DHT22;8517;53.546;10.104;2023-04-15T01:34:42;10.40;99.90
11221;DHT22;8517;53.546;10.104;2023-04-15T01:37:09;10.40;99.90
11221;DHT22;8517;53.546;10.104;2023-04-15T01:39:36;10.40;99.90
11221;DHT22;8517;53.546;10.104;2023-04-15T01:42:04;10.40;99.90
11221;DHT22;8517;53.546;10.104;2023-04-15T01:44:32;10.40;99.90
11221;DHT22;8517;53.546;10.104;2023-04-15T01:46:59;10.40;99.90
11221;DHT22;8517;53.546;10.104;2023-04-15T01:49:26;10.40;99.90
11221;DHT22;8517;53.546;10.104;2023-04-15T01:51:53;10.40;99.90
11221;DHT22;8517;53.546;10.104;2023-04-15T01:54:20;10.40;99.90
11221;DHT22;8517;53.546;10.104;2023-04-15T01:56:47;10.40;99.90
11221;DHT22;8517;53.546;10.104;2023-04-15T01:59:14;10.50;99.90
11221;DHT22;8517;53.546;10.104;2023-04-15T02:01:42;10.50;99.90
11221;DHT22;8517;53.546;10.104;2023-04-15T02:04:09;10.50;99.90
11221;DHT22;8517;53.546;10.104;2023-04-15T02:06:41;10.60;99.90
11221;DHT22;8517;53.546;10.104;2023-04-15T02:09:08;10.50;99.90
11221;DHT22;8517;53.546;10.104;2023-04-15T02:11:35;10.60;99.90
11221;DHT22;8517;53.546;10.104;2023-04-15T02:14:02;10.60;99.90
11221;DHT22;8517;53.546;10.104;2023-04-15T02:16:30;10.60;99.90
11221;DHT22;8517;53.546;10.104;2023-04-15T02:18:59;10.60;99.90
11221;DHT22;8517;53.546;10.104;2023-04-15T02:21:26;10.60;99.90
11221;DHT22;8517;53.546;10.104;2023-04-15T02:23:53;10.60;99.90
11221;DHT22;8517;53.546;10.104;2023-04-15T02:26:20;10.60;99.90
11221;DHT22;8517;53.546;10.104;2023-04-15T02:28:48;10.60;99.90
11221;DHT22;8517;53.546;10.104;2023-04-15T02:31:16;10.60;99.90
11221;DHT22;8517;53.546;10.104;2023-04-15T02:33:42;10.60;99.90
11221;DHT22;8517;53.546;10.104;2023-04-15T02:36:11;10.70;99.90
11221;DHT22;8517;53.546;10.104;2023-04-15T02:38:38;10.70;99.90
11221;DHT22;8517;53.546;10.104;2023-04-15T02:41:07;10.60;99.90
11221;DHT22;8517;53.546;10.104;2023-04-15T02:43:34;10.60;99.90
11221;DHT22;8517;53.546;10.104;2023-04-15T02:46:01;10.70;99.90
11221;DHT22;8517;53.546;10.104;2023-04-15T02:48:28;10.70;99.90
11221;DHT22;8517;53.546;10.104;2023-04-15T02:53:49;10.70;99.90
11221;DHT22;8517;53.546;10.104;2023-04-15T02:56:16;10.70;99.90
11221;DHT22;8517;53.546;10.104;2023-04-15T02:58:44;10.70;99.90
11221;DHT22;8517;53.546;10.104;2023-04-15T03:01:11;10.70;99.90
11221;DHT22;8517;53.546;10.104;2023-04-15T03:03:38;10.70;99.90
11221;DHT22;8517;53.546;10.104;2023-04-15T03:06:05;10.70;99.90
11221;DHT22;8517;53.546;10.104;2023-04-15T03:08:33;10.70;99.90
11221;DHT22;8517;53.546;10.104;2023-04-15T03:11:02;10.70;99.90
11221;DHT22;8517;53.546;10.104;2023-04-15T03:13:29;10.70;99.90
11221;DHT22;8517;53.546;10.104;2023-04-15T03:15:55;10.70;99.90
11221;DHT22;8517;53.546;10.104;2023-04-15T03:18:22;10.70;99.90
11221;DHT22;8517;53.546;10.104;2023-04-15T03:20:49;10.70;99.90
11221;DHT22;8517;53.546;10.104;2023-04-15T03:23:16;10.70;99.90
11221;DHT22;8517;53.546;10.104;2023-04-15T03:25:44;10.70;99.90
11221;DHT22;8517;53.546;10.104;2023-04-15T03:28:12;10.80;99.90
11221;DHT22;8517;53.546;10.104;2023-04-15T03:30:39;10.70;99.90
11221;DHT22;8517;53.546;10.104;2023-04-15T03:33:06;10.70;99.90
11221;DHT22;8517;53.546;10.104;2023-04-15T03:35:33;10.80;99.90
11221;DHT22;8517;53.546;10.104;2023-04-15T03:38:00;10.80;99.90
11221;DHT22;8517;53.546;10.104;2023-04-15T03:40:27;10.80;99.90
11221;DHT22;8517;53.546;10.104;2023-04-15T03:42:54;10.80;99.90
11221;DHT22;8517;53.546;10.104;2023-04-15T03:45:22;10.80;99.90
11221;DHT22;8517;53.546;10.104;2023-04-15T03:47:49;10.90;99.90
11221;DHT22;8517;53.546;10.104;2023-04-15T03:50:16;10.80;99.90
11221;DHT22;8517;53.546;10.104;2023-04-15T03:52:43;10.90;99.90
11221;DHT22;8517;53.546;10.104;2023-04-15T03:55:10;10.80;99.90
11221;DHT22;8517;53.546;10.104;2023-04-15T03:57:36;10.90;99.90
11221;DHT22;8517;53.546;10.104;2023-04-15T04:00:05;10.80;99.90
11221;DHT22;8517;53.546;10.104;2023-04-15T04:02:33;10.80;99.90
11221;DHT22;8517;53.546;10.104;2023-04-15T04:05:00;10.80;99.90
11221;DHT22;8517;53.546;10.104;2023-04-15T04:07:27;10.80;99.90
11221;DHT22;8517;53.546;10.104;2023-04-15T04:09:55;10.80;99.90
11221;DHT22;8517;53.546;10.104;2023-04-15T04:12:21;10.80;99.90
11221;DHT22;8517;53.546;10.104;2023-04-15T04:14:48;10.80;99.90
11221;DHT22;8517;53.546;10.104;2023-04-15T04:17:15;10.70;99.90
11221;DHT22;8517;53.546;10.104;2023-04-15T04:19:44;10.70;99.90
11221;DHT22;8517;53.546;10.104;2023-04-15T04:22:10;10.70;99.90
11221;DHT22;8517;53.546;10.104;2023-04-15T04:24:37;10.70;99.90
11221;DHT22;8517;53.546;10.104;2023-04-15T04:27:04;10.70;99.90
11221;DHT22;8517;53.546;10.104;2023-04-15T04:29:31;10.70;99.90
11221;DHT22;8517;53.546;10.104;2023-04-15T04:31:58;10.70;99.90
11221;DHT22;8517;53.546;10.104;2023-04-15T04:34:25;10.70;99.90
11221;DHT22;8517;53.546;10.104;2023-04-15T04:36:53;10.70;99.90
11221;DHT22;8517;53.546;10.104;2023-04-15T04:39:20;10.70;99.90
11221;DHT22;8517;53.546;10.104;2023-04-15T04:41:47;10.70;99.90
11221;DHT22;8517;53.546;10.104;2023-04-15T04:44:13;10.70;99.90
11221;DHT22;8517;53.546;10.104;2023-04-15T04:46:40;10.70;99.90
11221;DHT22;8517;53.546;10.104;2023-04-15T04:49:07;10.70;99.90
11221;DHT22;8517;53.546;10.104;2023-04-15T04:51:34;10.80;99.90
11221;DHT22;8517;53.546;10.104;2023-04-15T04:54:03;10.80;99.90
11221;DHT22;8517;53.546;10.104;2023-04-15T04:56:29;10.80;99.90
11221;DHT22;8517;53.546;10.104;2023-04-15T04:58:56;10.80;99.90
11221;DHT22;8517;53.546;10.104;2023-04-15T05:01:23;10.80;99.90
11221;DHT22;8517;53.546;10.104;2023-04-15T05:03:51;10.80;99.90
11221;DHT22;8517;53.546;10.104;2023-04-15T05:06:18;10.80;99.90
11221;DHT22;8517;53.546;10.104;2023-04-15T05:08:45;10.90;99.90
11221;DHT22;8517;53.546;10.104;2023-04-15T05:11:13;10.80;99.90
11221;DHT22;8517;53.546;10.104;2023-04-15T05:13:40;10.80;99.90
11221;DHT22;8517;53.546;10.104;2023-04-15T05:16:07;10.90;99.90
11221;DHT22;8517;53.546;10.104;2023-04-15T05:18:34;10.80;99.90
11221;DHT22;8517;53.546;10.104;2023-04-15T05:21:01;10.90;99.90
11221;DHT22;8517;53.546;10.104;2023-04-15T05:23:28;10.90;99.90
11221;DHT22;8517;53.546;10.104;2023-04-15T05:25:58;10.90;99.90
11221;DHT22;8517;53.546;10.104;2023-04-15T05:28:26;10.90;99.90
11221;DHT22;8517;53.546;10.104;2023-04-15T05:30:53;10.90;99.90
11221;DHT22;8517;53.546;10.104;2023-04-15T05:33:20;10.90;99.90
11221;DHT22;8517;53.546;10.104;2023-04-15T05:35:47;10.90;99.90
11221;DHT22;8517;53.546;10.104;2023-04-15T05:38:14;10.90;99.90
11221;DHT22;8517;53.546;10.104;2023-04-15T05:40:41;10.90;99.90
11221;DHT22;8517;53.546;10.104;2023-04-15T05:43:08;11.00;99.90
11221;DHT22;8517;53.546;10.104;2023-04-15T05:45:36;10.90;99.90
11221;DHT22;8517;53.546;10.104;2023-04-15T05:48:03;11.00;99.90
11221;DHT22;8517;53.546;10.104;2023-04-15T05:50:33;11.00;99.90
11221;DHT22;8517;53.546;10.104;2023-04-15T05:53:01;11.00;99.90
11221;DHT22;8517;53.546;10.104;2023-04-15T05:55:27;11.00;99.90
11221;DHT22;8517;53.546;10.104;2023-04-15T05:57:54;11.00;99.90
11221;DHT22;8517;53.546;10.104;2023-04-15T06:00:21;11.00;99.90
11221;DHT22;8517;53.546;10.104;2023-04-15T06:02:49;11.00;99.90
11221;DHT22;8517;53.546;10.104;2023-04-15T06:05:17;11.00;99.90
11221;DHT22;8517;53.546;10.104;2023-04-15T06:07:44;11.00;99.90
11221;DHT22;8517;53.546;10.104;2023-04-15T06:10:11;11.00;99.90
11221;DHT22;8517;53.546;10.104;2023-04-15T06:12:38;11.00;99.90
11221;DHT22;8517;53.546;10.104;2023-04-15T06:15:05;11.00;99.90
11221;DHT22;8517;53.546;10.104;2023-04-15T06:17:34;11.00;99.90
11221;DHT22;8517;53.546;10.104;2023-04-15T06:20:03;11.00;99.90
11221;DHT22;8517;53.546;10.104;2023-04-15T06:22:30;11.10;99.90
11221;DHT22;8517;53.546;10.104;2023-04-15T06:24:57;11.10;99.90
11221;DHT22;8517;53.546;10.104;2023-04-15T06:27:24;11.10;99.90
11221;DHT22;8517;53.546;10.104;2023-04-15T06:29:53;11.10;99.90
11221;DHT22;8517;53.546;10.104;2023-04-15T06:32:22;11.10;99.90
11221;DHT22;8517;53.546;10.104;2023-04-15T06:34:49;11.20;99.90
11221;DHT22;8517;53.546;10.104;2023-04-15T06:37:18;11.20;99.90
11221;DHT22;8517;53.546;10.104;2023-04-15T06:39:45;11.20;99.90
11221;DHT22;8517;53.546;10.104;2023-04-15T06:42:12;11.20;99.90
11221;DHT22;8517;53.546;10.104;2023-04-15T06:44:39;11.20;99.90
11221;DHT22;8517;53.546;10.104;2023-04-15T06:47:06;11.30;99.90
11221;DHT22;8517;53.546;10.104;2023-04-15T06:49:33;11.30;99.90
11221;DHT22;8517;53.546;10.104;2023-04-15T06:52:00;11.30;99.90
11221;DHT22;8517;53.546;10.104;2023-04-15T06:54:30;11.30;99.90
11221;DHT22;8517;53.546;10.104;2023-04-15T06:56:57;11.30;99.90
11221;DHT22;8517;53.546;10.104;2023-04-15T06:59:25;11.30;99.90
11221;DHT22;8517;53.546;10.104;2023-04-15T07:01:52;11.30;99.90
11221;DHT22;8517;53.546;10.104;2023-04-15T07:04:27;11.30;99.90
11221;DHT22;8517;53.546;10.104;2023-04-15T07:06:54;11.40;99.90
11221;DHT22;8517;53.546;10.104;2023-04-15T07:09:22;11.40;99.90
11221;DHT22;8517;53.546;10.104;2023-04-15T07:11:54;11.40;99.90
11221;DHT22;8517;53.546;10.104;2023-04-15T07:14:41;11.40;99.90
11221;DHT22;8517;53.546;10.104;2023-04-15T07:17:16;11.40;99.90
11221;DHT22;8517;53.546;10.104;2023-04-15T07:19:43;11.40;99.90
11221;DHT22;8517;53.546;10.104;2023-04-15T07:22:10;11.50;99.90
11221;DHT22;8517;53.546;10.104;2023-04-15T07:24:37;11.40;99.90
11221;DHT22;8517;53.546;10.104;2023-04-15T07:27:05;11.40;99.90
11221;DHT22;8517;53.546;10.104;2023-04-15T07:29:34;11.50;99.90
11221;DHT22;8517;53.546;10.104;2023-04-15T07:32:00;11.50;99.90
11221;DHT22;8517;53.546;10.104;2023-04-15T07:34:27;11.50;99.90
11221;DHT22;8517;53.546;10.104;2023-04-15T07:36:54;11.50;99.90
11221;DHT22;8517;53.546;10.104;2023-04-15T07:39:22;11.50;99.90
11221;DHT22;8517;53.546;10.104;2023-04-15T07:41:49;11.50;99.90
11221;DHT22;8517;53.546;10.104;2023-04-15T07:44:17;11.50;99.90
11221;DHT22;8517;53.546;10.104;2023-04-15T07:46:44;11.50;99.90
11221;DHT22;8517;53.546;10.104;2023-04-15T07:49:11;11.50;99.90
11221;DHT22;8517;53.546;10.104;2023-04-15T07:51:38;11.50;99.90
11221;DHT22;8517;53.546;10.104;2023-04-15T07:54:05;11.50;99.90
11221;DHT22;8517;53.546;10.104;2023-04-15T07:56:32;11.50;99.90
11221;DHT22;8517;53.546;10.104;2023-04-15T07:59:01;11.50;99.90
11221;DHT22;8517;53.546;10.104;2023-04-15T08:01:32;11.50;99.90
11221;DHT22;8517;53.546;10.104;2023-04-15T08:03:59;11.50;99.90
11221;DHT22;8517;53.546;10.104;2023-04-15T08:06:26;11.50;99.90
11221;DHT22;8517;53.546;10.104;2023-04-15T08:08:53;11.60;99.90
11221;DHT22;8517;53.546;10.104;2023-04-15T08:11:20;11.60;99.90
11221;DHT22;8517;53.546;10.104;2023-04-15T08:13:47;11.60;99.90
11221;DHT22;8517;53.546;10.104;2023-04-15T08:16:18;11.60;99.90
11221;DHT22;8517;53.546;10.104;2023-04-15T08:18:48;11.70;99.90
11221;DHT22;8517;53.546;10.104;2023-04-15T08:21:26;11.70;99.90
11221;DHT22;8517;53.546;10.104;2023-04-15T08:23:55;11.80;99.90
11221;DHT22;8517;53.546;10.104;2023-04-15T08:26:22;11.80;99.90
11221;DHT22;8517;53.546;10.104;2023-04-15T08:28:49;11.90;99.90
11221;DHT22;8517;53.546;10.104;2023-04-15T08:31:16;12.00;99.90
11221;DHT22;8517;53.546;10.104;2023-04-15T08:33:43;12.00;99.90
11221;DHT22;8517;53.546;10.104;2023-04-15T08:36:11;12.10;99.90
11221;DHT22;8517;53.546;10.104;2023-04-15T08:38:43;12.20;99.90
11221;DHT22;8517;53.546;10.104;2023-04-15T08:41:17;12.20;99.90
11221;DHT22;8517;53.546;10.104;2023-04-15T08:43:51;12.20;99.90
11221;DHT22;8517;53.546;10.104;2023-04-15T08:46:18;12.30;99.90
11221;DHT22;8517;53.546;10.104;2023-04-15T08:48:47;12.30;99.90
11221;DHT22;8517;53.546;10.104;2023-04-15T08:51:16;12.30;99.90
11221;DHT22;8517;53.546;10.104;2023-04-15T08:53:44;12.40;99.90
11221;DHT22;8517;53.546;10.104;2023-04-15T08:56:23;12.40;99.90
11221;DHT22;8517;53.546;10.104;2023-04-15T08:58:51;12.40;99.90
11221;DHT22;8517;53.546;10.104;2023-04-15T09:01:19;12.40;99.90
11221;DHT22;8517;53.546;10.104;2023-04-15T09:03:47;12.40;99.90
11221;DHT22;8517;53.546;10.104;2023-04-15T09:06:17;12.40;99.90
11221;DHT22;8517;53.546;10.104;2023-04-15T09:08:45;12.50;99.90
11221;DHT22;8517;53.546;10.104;2023-04-15T09:11:12;12.50;99.90
11221;DHT22;8517;53.546;10.104;2023-04-15T09:13:43;12.50;99.90
11221;DHT22;8517;53.546;10.104;2023-04-15T09:16:10;12.60;99.90
11221;DHT22;8517;53.546;10.104;2023-04-15T09:18:41;12.60;99.90
11221;DHT22;8517;53.546;10.104;2023-04-15T09:21:10;12.70;99.90
11221;DHT22;8517;53.546;10.104;2023-04-15T09:23:40;12.80;99.90
11221;DHT22;8517;53.546;10.104;2023-04-15T09:26:07;12.90;99.90
11221;DHT22;8517;53.546;10.104;2023-04-15T09:28:41;13.00;99.90
11221;DHT22;8517;53.546;10.104;2023-04-15T09:31:11;13.10;99.90
11221;DHT22;8517;53.546;10.104;2023-04-15T09:33:54;13.30;99.90
11221;DHT22;8517;53.546;10.104;2023-04-15T09:36:21;13.40;99.90
11221;DHT22;8517;53.546;10.104;2023-04-15T09:38:55;13.50;99.90
11221;DHT22;8517;53.546;10.104;2023-04-15T09:41:23;13.80;99.90
11221;DHT22;8517;53.546;10.104;2023-04-15T09:43:51;14.00;99.90
11221;DHT22;8517;53.546;10.104;2023-04-15T09:46:18;14.20;99.90
11221;DHT22;8517;53.546;10.104;2023-04-15T09:48:46;14.30;99.90
11221;DHT22;8517;53.546;10.104;2023-04-15T09:51:13;14.50;99.90
11221;DHT22;8517;53.546;10.104;2023-04-15T09:53:42;14.60;99.90
11221;DHT22;8517;53.546;10.104;2023-04-15T09:56:11;14.80;99.90
11221;DHT22;8517;53.546;10.104;2023-04-15T09:59:03;15.00;99.90
11221;DHT22;8517;53.546;10.104;2023-04-15T10:01:35;15.20;99.90
11221;DHT22;8517;53.546;10.104;2023-04-15T10:04:27;15.40;99.90
11221;DHT22;8517;53.546;10.104;2023-04-15T10:07:04;15.50;99.90
11221;DHT22;8517;53.546;10.104;2023-04-15T10:09:31;15.70;99.90
11221;DHT22;8517;53.546;10.104;2023-04-15T10:12:01;15.70;99.90
11221;DHT22;8517;53.546;10.104;2023-04-15T10:14:32;15.90;99.90
11221;DHT22;8517;53.546;10.104;2023-04-15T10:17:00;16.10;99.90
11221;DHT22;8517;53.546;10.104;2023-04-15T10:19:30;16.30;99.90
11221;DHT22;8517;53.546;10.104;2023-04-15T10:22:09;16.50;99.90
11221;DHT22;8517;53.546;10.104;2023-04-15T10:24:38;16.70;99.90
11221;DHT22;8517;53.546;10.104;2023-04-15T10:27:09;16.90;99.90
11221;DHT22;8517;53.546;10.104;2023-04-15T10:29:36;17.00;99.90
11221;DHT22;8517;53.546;10.104;2023-04-15T10:32:03;17.20;99.90
11221;DHT22;8517;53.546;10.104;2023-04-15T10:34:31;17.30;99.90
11221;DHT22;8517;53.546;10.104;2023-04-15T10:37:00;17.40;99.90
11221;DHT22;8517;53.546;10.104;2023-04-15T10:39:41;17.50;99.90
11221;DHT22;8517;53.546;10.104;2023-04-15T10:42:11;17.60;99.90
11221;DHT22;8517;53.546;10.104;2023-04-15T10:44:39;17.60;99.90
11221;DHT22;8517;53.546;10.104;2023-04-15T10:47:11;17.70;99.90
11221;DHT22;8517;53.546;10.104;2023-04-15T10:49:46;17.70;99.90
11221;DHT22;8517;53.546;10.104;2023-04-15T10:52:14;17.70;99.90
11221;DHT22;8517;53.546;10.104;2023-04-15T10:54:42;17.70;99.90
11221;DHT22;8517;53.546;10.104;2023-04-15T10:57:45;17.60;99.90
11221;DHT22;8517;53.546;10.104;2023-04-15T11:00:29;17.60;99.90
11221;DHT22;8517;53.546;10.104;2023-04-15T11:02:57;17.50;99.90
11221;DHT22;8517;53.546;10.104;2023-04-15T11:05:48;17.50;99.90
11221;DHT22;8517;53.546;10.104;2023-04-15T11:08:15;17.50;99.90
11221;DHT22;8517;53.546;10.104;2023-04-15T11:10:52;17.50;99.90
11221;DHT22;8517;53.546;10.104;2023-04-15T11:13:27;17.30;99.90
11221;DHT22;8517;53.546;10.104;2023-04-15T11:16:00;17.20;99.90
11221;DHT22;8517;53.546;10.104;2023-04-15T11:18:33;17.10;99.90
11221;DHT22;8517;53.546;10.104;2023-04-15T11:21:02;16.90;99.90
11221;DHT22;8517;53.546;10.104;2023-04-15T11:23:35;16.80;99.90
11221;DHT22;8517;53.546;10.104;2023-04-15T11:26:04;16.70;99.90
11221;DHT22;8517;53.546;10.104;2023-04-15T11:28:35;16.60;99.90
11221;DHT22;8517;53.546;10.104;2023-04-15T11:31:15;16.60;99.90
11221;DHT22;8517;53.546;10.104;2023-04-15T11:33:55;16.40;99.90
11221;DHT22;8517;53.546;10.104;2023-04-15T11:36:24;16.40;99.90
11221;DHT22;8517;53.546;10.104;2023-04-15T11:38:56;16.30;99.90
11221;DHT22;8517;53.546;10.104;2023-04-15T11:41:26;16.30;99.90
11221;DHT22;8517;53.546;10.104;2023-04-15T11:43:54;16.30;99.90
11221;DHT22;8517;53.546;10.104;2023-04-15T11:46:28;16.30;99.90
11221;DHT22;8517;53.546;10.104;2023-04-15T11:48:55;16.50;99.90
11221;DHT22;8517;53.546;10.104;2023-04-15T11:51:22;16.70;99.90
11221;DHT22;8517;53.546;10.104;2023-04-15T11:53:49;17.00;99.90
11221;DHT22;8517;53.546;10.104;2023-04-15T11:56:17;17.10;99.90
11221;DHT22;8517;53.546;10.104;2023-04-15T11:58:48;17.30;99.90
11221;DHT22;8517;53.546;10.104;2023-04-15T12:01:19;17.40;99.90
11221;DHT22;8517;53.546;10.104;2023-04-15T12:03:47;17.50;99.90
11221;DHT22;8517;53.546;10.104;2023-04-15T12:06:16;17.60;99.90
11221;DHT22;8517;53.546;10.104;2023-04-15T12:09:02;17.80;99.90
11221;DHT22;8517;53.546;10.104;2023-04-15T12:11:43;17.90;99.90
11221;DHT22;8517;53.546;10.104;2023-04-15T12:14:20;17.90;99.90
11221;DHT22;8517;53.546;10.104;2023-04-15T12:16:50;18.00;99.90
11221;DHT22;8517;53.546;10.104;2023-04-15T12:19:23;17.90;99.90
11221;DHT22;8517;53.546;10.104;2023-04-15T12:21:52;17.90;99.90
11221;DHT22;8517;53.546;10.104;2023-04-15T12:24:20;17.80;99.90
11221;DHT22;8517;53.546;10.104;2023-04-15T12:26:49;17.70;99.90
11221;DHT22;8517;53.546;10.104;2023-04-15T12:29:17;17.60;99.90
11221;DHT22;8517;53.546;10.104;2023-04-15T12:31:50;17.50;99.90
11221;DHT22;8517;53.546;10.104;2023-04-15T12:34:17;17.40;99.90
11221;DHT22;8517;53.546;10.104;2023-04-15T12:36:45;17.30;99.90
11221;DHT22;8517;53.546;10.104;2023-04-15T12:39:12;17.30;99.90
11221;DHT22;8517;53.546;10.104;2023-04-15T12:41:39;17.20;99.90
11221;DHT22;8517;53.546;10.104;2023-04-15T12:44:09;17.20;99.90
11221;DHT22;8517;53.546;10.104;2023-04-15T12:46:36;17.10;99.90
11221;DHT22;8517;53.546;10.104;2023-04-15T12:49:05;17.10;99.90
11221;DHT22;8517;53.546;10.104;2023-04-15T12:51:32;17.10;99.90
11221;DHT22;8517;53.546;10.104;2023-04-15T12:53:59;17.10;99.90
11221;DHT22;8517;53.546;10.104;2023-04-15T12:56:26;17.10;99.90
11221;DHT22;8517;53.546;10.104;2023-04-15T12:58:53;17.00;99.90
11221;DHT22;8517;53.546;10.104;2023-04-15T13:01:20;17.10;99.90
11221;DHT22;8517;53.546;10.104;2023-04-15T13:03:47;17.10;99.90
11221;DHT22;8517;53.546;10.104;2023-04-15T13:06:21;17.10;99.90
11221;DHT22;8517;53.546;10.104;2023-04-15T13:08:48;17.10;99.90
11221;DHT22;8517;53.546;10.104;2023-04-15T13:11:15;17.00;99.90
11221;DHT22;8517;53.546;10.104;2023-04-15T13:13:42;17.10;99.90
11221;DHT22;8517;53.546;10.104;2023-04-15T13:16:09;17.00;99.90
11221;DHT22;8517;53.546;10.104;2023-04-15T13:18:36;17.00;99.90
11221;DHT22;8517;53.546;10.104;2023-04-15T13:21:03;17.00;99.90
11221;DHT22;8517;53.546;10.104;2023-04-15T13:23:33;17.00;99.90
11221;DHT22;8517;53.546;10.104;2023-04-15T13:26:00;17.10;99.90
11221;DHT22;8517;53.546;10.104;2023-04-15T13:28:27;17.10;99.90
11221;DHT22;8517;53.546;10.104;2023-04-15T13:30:54;17.10;99.90
11221;DHT22;8517;53.546;10.104;2023-04-15T13:33:21;17.10;99.90
11221;DHT22;8517;53.546;10.104;2023-04-15T13:35:48;17.20;99.90
11221;DHT22;8517;53.546;10.104;2023-04-15T13:38:15;17.20;99.90
11221;DHT22;8517;53.546;10.104;2023-04-15T13:40:43;17.20;99.90
11221;DHT22;8517;53.546;10.104;2023-04-15T13:43:10;17.20;99.90
11221;DHT22;8517;53.546;10.104;2023-04-15T13:45:38;17.20;99.90
11221;DHT22;8517;53.546;10.104;2023-04-15T13:48:06;17.20;99.90
11221;DHT22;8517;53.546;10.104;2023-04-15T13:50:33;17.20;99.90
11221;DHT22;8517;53.546;10.104;2023-04-15T13:53:00;17.10;99.90
11221;DHT22;8517;53.546;10.104;2023-04-15T13:55:31;17.20;99.90
11221;DHT22;8517;53.546;10.104;2023-04-15T13:58:23;17.20;99.90
11221;DHT22;8517;53.546;10.104;2023-04-15T14:00:50;17.30;99.90
11221;DHT22;8517;53.546;10.104;2023-04-15T14:03:17;17.30;99.90
11221;DHT22;8517;53.546;10.104;2023-04-15T14:05:44;17.30;99.90
11221;DHT22;8517;53.546;10.104;2023-04-15T14:08:11;17.30;99.90
11221;DHT22;8517;53.546;10.104;2023-04-15T14:10:38;17.30;99.90
11221;DHT22;8517;53.546;10.104;2023-04-15T14:13:06;17.30;99.90
11221;DHT22;8517;53.546;10.104;2023-04-15T14:15:34;17.30;99.90
11221;DHT22;8517;53.546;10.104;2023-04-15T14:18:07;17.20;99.90
11221;DHT22;8517;53.546;10.104;2023-04-15T14:20:36;17.30;99.90
11221;DHT22;8517;53.546;10.104;2023-04-15T14:23:02;17.30;99.90
11221;DHT22;8517;53.546;10.104;2023-04-15T14:25:30;17.30;99.90
11221;DHT22;8517;53.546;10.104;2023-04-15T14:27:57;17.30;99.90
11221;DHT22;8517;53.546;10.104;2023-04-15T14:30:23;17.30;99.90
11221;DHT22;8517;53.546;10.104;2023-04-15T14:32:52;17.30;99.90
11221;DHT22;8517;53.546;10.104;2023-04-15T14:35:19;17.30;99.90
11221;DHT22;8517;53.546;10.104;2023-04-15T14:37:46;17.30;99.90
11221;DHT22;8517;53.546;10.104;2023-04-15T14:40:12;17.30;99.90
11221;DHT22;8517;53.546;10.104;2023-04-15T14:42:40;17.30;99.90
11221;DHT22;8517;53.546;10.104;2023-04-15T14:45:08;17.30;99.90
11221;DHT22;8517;53.546;10.104;2023-04-15T14:47:42;17.30;99.90
11221;DHT22;8517;53.546;10.104;2023-04-15T14:50:10;17.30;99.90
11221;DHT22;8517;53.546;10.104;2023-04-15T14:52:40;17.30;99.90
11221;DHT22;8517;53.546;10.104;2023-04-15T14:55:10;17.30;99.90
11221;DHT22;8517;53.546;10.104;2023-04-15T14:57:37;17.30;99.90
11221;DHT22;8517;53.546;10.104;2023-04-15T15:00:05;17.30;99.90
11221;DHT22;8517;53.546;10.104;2023-04-15T15:02:33;17.30;99.90
11221;DHT22;8517;53.546;10.104;2023-04-15T15:05:02;17.30;99.90
11221;DHT22;8517;53.546;10.104;2023-04-15T15:07:30;17.20;99.90
11221;DHT22;8517;53.546;10.104;2023-04-15T15:09:57;17.10;99.90
11221;DHT22;8517;53.546;10.104;2023-04-15T15:12:24;17.10;99.90
11221;DHT22;8517;53.546;10.104;2023-04-15T15:14:51;17.20;99.90
11221;DHT22;8517;53.546;10.104;2023-04-15T15:17:18;17.10;99.90
11221;DHT22;8517;53.546;10.104;2023-04-15T15:19:45;17.10;99.90
11221;DHT22;8517;53.546;10.104;2023-04-15T15:22:12;17.10;99.90
11221;DHT22;8517;53.546;10.104;2023-04-15T15:24:40;17.10;99.90
11221;DHT22;8517;53.546;10.104;2023-04-15T15:27:07;17.10;99.90
11221;DHT22;8517;53.546;10.104;2023-04-15T15:29:34;17.00;99.90
11221;DHT22;8517;53.546;10.104;2023-04-15T15:32:01;17.00;99.90
11221;DHT22;8517;53.546;10.104;2023-04-15T15:34:28;16.90;99.90
11221;DHT22;8517;53.546;10.104;2023-04-15T15:36:55;16.90;99.90
11221;DHT22;8517;53.546;10.104;2023-04-15T15:39:23;16.80;99.90
11221;DHT22;8517;53.546;10.104;2023-04-15T15:41:51;16.80;99.90